Twin Brooks, South Dakota
Current Conditions -  °F | °C
As of 1:14 PM on Thursday 30 Oct 2014 (Local Time) from KVVV Reporting Station
Overcast Overcast  
Wind Chill:   Ceiling: 1000
Heat Index:   Visibility: 7mi
Dew Point:   Wind: 14mph
Humidity: 81%   Direction: 350°N
Pressure: 30.19"   Gusts: 20mph
Location:  45.21°N, 96.78°W
Report Text: KVVV 301814Z AUTO 35012G17KT 7SM OVC010 06/03 A3019 RMK AO2
Loading
Personal Weather Stations






























Interactive Weather Map
Tropical Storm Tracking
New forecast layout! Learn more

10-Day Weather Forecast

Advertisements
Track Severe Weather on mobile